Time;durP1;ratioP1;P1;durP2;ratioP2;P2;SDS_P1;SDS_P2;PMS_P1;PMS_P2;Temp;Humidity;BMP_temperature;BMP_pressure;BME280_temperature;BME280_humidity;BME280_pressure;Samples;Min_cycle;Max_cycle;Signal;HPM_P1;HPM_P2
2021/09/01 00:00:10;;;;;;;23.10;21.53;;;13.70;93.60;;;;;;5007329;28;20464;-69
2021/09/01 00:02:38;;;;;;;23.43;21.80;;;13.70;93.80;;;;;;5000070;28;20481;-69
2021/09/01 00:05:09;;;;;;;23.20;21.70;;;13.60;93.90;;;;;;5012082;28;20458;-69
2021/09/01 00:07:37;;;;;;;22.57;21.17;;;13.60;93.90;;;;;;4992756;28;20547;-69
2021/09/01 00:10:05;;;;;;;23.83;22.27;;;13.60;93.90;;;;;;4995918;28;20450;-69
2021/09/01 00:12:32;;;;;;;23.20;21.70;;;13.60;94.00;;;;;;5002714;28;20535;-69
2021/09/01 00:14:58;;;;;;;22.90;21.40;;;13.60;93.90;;;;;;5002638;28;20857;-69
2021/09/01 00:17:25;;;;;;;24.27;22.60;;;13.60;93.80;;;;;;4999702;28;20455;-69
2021/09/01 00:19:54;;;;;;;23.50;22.00;;;13.60;93.80;;;;;;4998050;28;20492;-69
2021/09/01 00:22:20;;;;;;;24.97;22.93;;;13.60;93.60;;;;;;4995381;28;20477;-69
2021/09/01 00:24:48;;;;;;;24.87;22.87;;;13.60;93.60;;;;;;5002822;28;20453;-69
2021/09/01 00:27:14;;;;;;;24.20;22.47;;;13.60;93.50;;;;;;4998555;28;20460;-68
2021/09/01 00:29:41;;;;;;;23.77;22.20;;;13.50;93.70;;;;;;5001034;28;20485;-69
2021/09/01 00:32:08;;;;;;;23.87;22.20;;;13.50;93.70;;;;;;5002597;28;20468;-69
2021/09/01 00:34:35;;;;;;;24.67;22.87;;;13.50;93.90;;;;;;5005985;28;20466;-69
2021/09/01 00:37:04;;;;;;;24.20;22.60;;;13.40;94.00;;;;;;5015309;28;20465;-69
2021/09/01 00:39:31;;;;;;;24.03;22.43;;;13.40;94.10;;;;;;4997627;28;20496;-69
2021/09/01 00:42:00;;;;;;;24.73;22.93;;;13.40;94.00;;;;;;5006502;28;20483;-69
2021/09/01 00:44:27;;;;;;;26.40;23.80;;;13.50;93.70;;;;;;5000733;28;21067;-68
2021/09/01 00:46:55;;;;;;;24.70;23.00;;;13.40;94.00;;;;;;5007122;28;20464;-69
2021/09/01 00:49:23;;;;;;;24.00;22.40;;;13.40;94.10;;;;;;5004917;28;20491;-69
2021/09/01 00:51:51;;;;;;;24.00;22.40;;;13.30;94.10;;;;;;4995437;28;21052;-69
2021/09/01 00:54:21;;;;;;;24.10;22.50;;;13.30;94.10;;;;;;5009550;28;20476;-69
2021/09/01 00:56:52;;;;;;;24.13;22.57;;;13.30;94.10;;;;;;5009536;28;20449;-69
2021/09/01 00:59:20;;;;;;;26.00;24.10;;;13.30;94.00;;;;;;5005864;28;20819;-69
2021/09/01 01:01:48;;;;;;;24.90;23.27;;;13.40;93.80;;;;;;4997960;28;20474;-69
2021/09/01 01:04:15;;;;;;;24.17;22.57;;;13.30;93.70;;;;;;5003809;28;20790;-69
2021/09/01 01:06:42;;;;;;;26.20;24.10;;;13.20;93.80;;;;;;5006467;28;20552;-69
2021/09/01 01:09:11;;;;;;;23.40;21.80;;;13.20;93.80;;;;;;4995053;28;20484;-69
2021/09/01 01:11:39;;;;;;;24.63;22.90;;;13.20;93.80;;;;;;5009286;28;20474;-69
2021/09/01 01:14:06;;;;;;;25.00;23.30;;;13.20;93.90;;;;;;5012878;28;20466;-69
2021/09/01 01:16:33;;;;;;;24.63;22.90;;;13.10;94.10;;;;;;5009652;28;20577;-69
2021/09/01 01:19:00;;;;;;;24.03;22.47;;;13.10;94.10;;;;;;5006615;28;20662;-69
2021/09/01 01:21:28;;;;;;;25.67;23.97;;;13.10;94.10;;;;;;4999678;28;20462;-69
2021/09/01 01:23:57;;;;;;;24.93;23.13;;;13.10;94.10;;;;;;4999095;28;20564;-69
2021/09/01 01:26:26;;;;;;;25.40;23.60;;;13.10;94.10;;;;;;5008589;28;20459;-69
2021/09/01 01:28:55;;;;;;;25.27;23.20;;;13.10;94.10;;;;;;5004627;28;20777;-69
2021/09/01 01:31:23;;;;;;;24.93;23.33;;;13.10;94.10;;;;;;4995274;28;20457;-69
2021/09/01 01:33:50;;;;;;;24.93;23.13;;;13.10;94.00;;;;;;5000820;28;21018;-69
2021/09/01 01:36:17;;;;;;;25.30;23.70;;;13.10;94.00;;;;;;5012737;28;20962;-69
2021/09/01 01:38:44;;;;;;;24.43;22.73;;;13.10;94.10;;;;;;5008262;28;20491;-69
2021/09/01 01:41:11;;;;;;;24.30;22.70;;;13.10;94.10;;;;;;5000853;28;20461;-69
2021/09/01 01:43:41;;;;;;;26.30;24.40;;;13.10;94.00;;;;;;5006250;28;20600;-69
2021/09/01 01:46:08;;;;;;;26.97;24.97;;;13.00;94.10;;;;;;5012488;28;20469;-69
2021/09/01 01:48:35;;;;;;;25.30;23.60;;;13.10;94.10;;;;;;4995688;28;21069;-69
2021/09/01 01:51:02;;;;;;;26.00;24.20;;;13.10;94.10;;;;;;5011513;28;20946;-69
2021/09/01 01:53:30;;;;;;;27.20;25.10;;;13.10;93.80;;;;;;4998246;28;20666;-69
2021/09/01 01:55:56;;;;;;;25.10;23.40;;;13.10;94.10;;;;;;4998758;28;20468;-69
2021/09/01 01:58:23;;;;;;;25.50;23.70;;;13.10;93.90;;;;;;5011131;28;20498;-69
2021/09/01 02:00:52;;;;;;;25.43;23.53;;;13.00;94.20;;;;;;5011182;28;20478;-69
2021/09/01 02:03:19;;;;;;;26.53;24.63;;;13.00;94.20;;;;;;5005210;28;20568;-69
2021/09/01 02:05:46;;;;;;;26.90;25.03;;;13.00;94.20;;;;;;5010879;28;20461;-69
2021/09/01 02:08:13;;;;;;;26.83;24.67;;;13.00;94.30;;;;;;5012406;28;20910;-69
2021/09/01 02:10:39;;;;;;;25.77;23.97;;;13.00;94.50;;;;;;5007031;28;20893;-69
2021/09/01 02:13:07;;;;;;;26.47;24.57;;;13.00;94.50;;;;;;5002276;28;20952;-69
2021/09/01 02:15:34;;;;;;;25.53;23.63;;;13.00;94.40;;;;;;4989135;28;20855;-69
2021/09/01 02:18:03;;;;;;;28.03;25.63;;;13.10;94.30;;;;;;4999141;28;20488;-69
2021/09/01 02:20:29;;;;;;;26.70;24.70;;;13.00;94.30;;;;;;5005411;28;20472;-68
2021/09/01 02:22:56;;;;;;;27.53;25.53;;;13.00;94.60;;;;;;5003566;28;20845;-69
2021/09/01 02:25:26;;;;;;;27.17;25.10;;;13.00;94.70;;;;;;5008889;28;20463;-69
2021/09/01 02:27:53;;;;;;;26.40;24.50;;;13.00;95.10;;;;;;5006231;28;21012;-69
2021/09/01 02:30:21;;;;;;;26.57;24.80;;;13.00;94.60;;;;;;4988718;28;20880;-69
2021/09/01 02:32:48;;;;;;;26.87;24.97;;;13.00;94.40;;;;;;5006165;28;20878;-69
2021/09/01 02:35:17;;;;;;;26.70;24.37;;;12.90;94.20;;;;;;5002217;28;20824;-69
2021/09/01 02:37:43;;;;;;;25.30;23.60;;;12.90;94.10;;;;;;5007292;28;20461;-69
2021/09/01 02:40:11;;;;;;;28.10;25.83;;;12.90;94.00;;;;;;5001563;28;20461;-69
2021/09/01 02:42:40;;;;;;;25.63;23.83;;;12.90;93.70;;;;;;5000085;28;20828;-69
2021/09/01 02:45:08;;;;;;;26.00;24.20;;;12.80;93.70;;;;;;4990970;28;20486;-69
2021/09/01 02:47:35;;;;;;;26.67;24.67;;;12.80;93.80;;;;;;4998555;28;20578;-69
2021/09/01 02:50:04;;;;;;;26.73;24.73;;;12.80;93.80;;;;;;5003746;28;20445;-69
2021/09/01 02:52:32;;;;;;;26.60;24.57;;;12.70;94.00;;;;;;4990854;28;20456;-69
2021/09/01 02:54:59;;;;;;;26.37;24.37;;;12.70;94.20;;;;;;4999112;28;21268;-69
2021/09/01 02:57:26;;;;;;;26.83;24.90;;;12.60;94.50;;;;;;4996553;28;20533;-69
2021/09/01 02:59:53;;;;;;;25.73;23.87;;;12.60;94.50;;;;;;4996891;28;20481;-69
2021/09/01 03:02:20;;;;;;;26.33;24.43;;;12.60;94.40;;;;;;5004915;28;20600;-69
2021/09/01 03:04:47;;;;;;;28.67;26.20;;;12.70;94.00;;;;;;5002574;28;20941;-69
2021/09/01 03:07:14;;;;;;;27.97;25.97;;;12.70;93.80;;;;;;5003485;28;20508;-68
2021/09/01 03:09:42;;;;;;;26.60;24.50;;;12.60;93.80;;;;;;5006860;28;20990;-69
2021/09/01 03:12:09;;;;;;;26.87;24.97;;;12.60;93.70;;;;;;5001222;28;21125;-69
2021/09/01 03:14:36;;;;;;;26.70;24.80;;;12.50;93.70;;;;;;5004488;28;20453;-69
2021/09/01 03:17:04;;;;;;;28.10;26.10;;;12.40;94.10;;;;;;5019263;28;20514;-69
2021/09/01 03:19:30;;;;;;;29.17;26.47;;;12.30;94.50;;;;;;4997116;28;20477;-68
2021/09/01 03:21:57;;;;;;;29.60;27.50;;;12.30;94.80;;;;;;5004045;28;20466;-69
2021/09/01 03:24:24;;;;;;;30.00;27.53;;;12.30;95.50;;;;;;4992574;28;20481;-69
2021/09/01 03:26:52;;;;;;;28.33;26.23;;;12.30;95.40;;;;;;5013385;28;20457;-69
2021/09/01 03:29:19;;;;;;;28.50;26.40;;;12.30;95.30;;;;;;5000272;28;20484;-69
2021/09/01 03:31:46;;;;;;;29.53;27.27;;;12.30;95.20;;;;;;4993981;28;20457;-69
2021/09/01 03:34:13;;;;;;;29.50;27.40;;;12.30;95.00;;;;;;5009217;28;20463;-69
2021/09/01 03:36:40;;;;;;;30.80;28.50;;;12.40;94.60;;;;;;5000114;28;20467;-69
2021/09/01 03:39:07;;;;;;;28.00;26.10;;;12.40;94.40;;;;;;5010504;28;20580;-69
2021/09/01 03:41:34;;;;;;;29.80;27.50;;;12.30;94.40;;;;;;5011538;28;20813;-69
2021/09/01 03:44:02;;;;;;;28.03;26.03;;;12.30;94.40;;;;;;5002125;28;20576;-69
2021/09/01 03:46:29;;;;;;;28.37;26.37;;;12.20;94.60;;;;;;4999236;28;20543;-69
2021/09/01 03:48:56;;;;;;;27.73;25.63;;;12.20;94.70;;;;;;5014771;28;20467;-69
2021/09/01 03:51:23;;;;;;;28.57;26.40;;;12.20;95.00;;;;;;5016398;28;20455;-69
2021/09/01 03:53:50;;;;;;;29.13;26.73;;;12.20;95.00;;;;;;5011572;28;20873;-69
2021/09/01 03:56:16;;;;;;;28.27;26.20;;;12.20;94.90;;;;;;4998815;28;20457;-69
2021/09/01 03:58:43;;;;;;;29.33;27.03;;;12.20;94.90;;;;;;5012240;28;20563;-69
2021/09/01 04:01:11;;;;;;;28.50;26.53;;;12.20;94.80;;;;;;4993933;28;20472;-69
2021/09/01 04:03:38;;;;;;;32.33;29.83;;;12.20;94.70;;;;;;4996869;28;20492;-69
2021/09/01 04:06:05;;;;;;;28.03;26.10;;;12.20;94.70;;;;;;5003317;28;20467;-69
2021/09/01 04:08:32;;;;;;;29.50;27.47;;;12.20;94.40;;;;;;5008161;28;20564;-69
2021/09/01 04:10:59;;;;;;;30.23;28.03;;;12.10;94.60;;;;;;5003741;28;20836;-69
2021/09/01 04:13:26;;;;;;;29.93;27.73;;;12.20;94.50;;;;;;4997069;28;20458;-69
2021/09/01 04:15:53;;;;;;;30.10;28.00;;;12.10;94.40;;;;;;4993888;28;20463;-69
2021/09/01 04:18:21;;;;;;;30.27;28.17;;;12.10;94.50;;;;;;5007372;28;20516;-69
2021/09/01 04:20:48;;;;;;;28.47;26.27;;;12.10;94.60;;;;;;5014890;28;20453;-69
2021/09/01 04:23:15;;;;;;;28.37;26.37;;;12.00;94.70;;;;;;5009603;28;20479;-68
2021/09/01 04:25:42;;;;;;;28.93;26.67;;;12.10;94.70;;;;;;5018164;28;20456;-69
2021/09/01 04:28:09;;;;;;;27.93;25.70;;;12.10;94.50;;;;;;5001862;28;20841;-69
2021/09/01 04:30:36;;;;;;;30.70;28.50;;;12.10;94.10;;;;;;5003036;28;21012;-68
2021/09/01 04:33:03;;;;;;;30.03;27.93;;;12.00;94.10;;;;;;5009926;28;20487;-69
2021/09/01 04:35:31;;;;;;;29.93;27.50;;;12.00;94.20;;;;;;5000926;28;20946;-70
2021/09/01 04:37:58;;;;;;;28.67;26.70;;;12.00;94.30;;;;;;4998864;28;20567;-71
2021/09/01 04:40:25;;;;;;;30.17;27.93;;;11.90;94.40;;;;;;5008052;28;20449;-68
2021/09/01 04:42:52;;;;;;;31.33;28.90;;;12.00;94.40;;;;;;5013985;28;20473;-69
2021/09/01 04:45:19;;;;;;;29.90;27.67;;;12.00;94.20;;;;;;5005098;28;20492;-71
2021/09/01 04:47:45;;;;;;;31.17;28.97;;;11.90;94.20;;;;;;5004681;28;20544;-69
2021/09/01 04:50:13;;;;;;;29.87;27.47;;;11.90;94.40;;;;;;5002849;28;20504;-69
2021/09/01 04:52:41;;;;;;;30.53;28.27;;;11.90;94.40;;;;;;5006582;28;20463;-69
2021/09/01 04:55:09;;;;;;;28.17;26.03;;;11.90;94.30;;;;;;5009445;28;20498;-68
2021/09/01 04:57:36;;;;;;;28.70;26.60;;;11.90;94.20;;;;;;5003587;28;20474;-69
2021/09/01 05:00:05;;;;;;;28.20;26.10;;;11.90;94.30;;;;;;5000349;28;20540;-69
2021/09/01 05:02:32;;;;;;;31.00;28.60;;;12.10;94.30;;;;;;5008986;28;20204;-67
2021/09/01 05:04:59;;;;;;;31.37;29.00;;;12.10;93.80;;;;;;5003132;28;20547;-68
2021/09/01 05:07:26;;;;;;;31.70;29.40;;;12.10;93.80;;;;;;5007092;28;20537;-68
2021/09/01 05:09:54;;;;;;;29.73;27.33;;;12.10;93.90;;;;;;4994490;28;20498;-67
2021/09/01 05:12:26;;;;;;;30.40;28.10;;;12.20;94.20;;;;;;5014036;28;20833;-67
2021/09/01 05:14:53;;;;;;;29.58;27.17;;;12.20;93.90;;;;;;5002310;28;20495;-68
2021/09/01 05:17:20;;;;;;;32.53;30.13;;;12.30;93.20;;;;;;4993740;28;20202;-68
2021/09/01 05:19:47;;;;;;;31.13;28.83;;;12.30;93.00;;;;;;5016918;28;20481;-68
2021/09/01 05:22:17;;;;;;;29.70;27.50;;;12.20;93.20;;;;;;5005421;28;20556;-69
2021/09/01 05:24:54;;;;;;;29.93;27.53;;;12.20;94.40;;;;;;5003896;28;20557;-72
2021/09/01 05:27:24;;;;;;;32.27;29.90;;;12.30;94.40;;;;;;5010089;28;20460;-73
2021/09/01 05:29:51;;;;;;;30.67;28.50;;;12.40;94.00;;;;;;4998743;28;20665;-72
2021/09/01 05:32:20;;;;;;;31.03;28.70;;;12.50;93.90;;;;;;5006994;28;20556;-71
2021/09/01 05:34:48;;;;;;;31.17;28.73;;;12.60;93.50;;;;;;5012841;28;20456;-69
2021/09/01 05:37:15;;;;;;;30.67;28.57;;;12.70;93.10;;;;;;5008790;28;20468;-69
2021/09/01 05:39:44;;;;;;;30.80;28.50;;;12.70;92.80;;;;;;5011746;28;20894;-69
2021/09/01 05:42:14;;;;;;;30.00;27.90;;;12.80;92.40;;;;;;5010511;28;20988;-69
2021/09/01 05:44:42;;;;;;;30.63;28.17;;;12.80;92.40;;;;;;4997802;28;20978;-69
2021/09/01 05:47:10;;;;;;;31.90;29.70;;;12.80;91.90;;;;;;5005940;28;20491;-69
2021/09/01 05:49:39;;;;;;;30.43;28.13;;;12.90;91.50;;;;;;4997863;28;20480;-69
2021/09/01 05:52:07;;;;;;;29.27;26.97;;;13.00;91.30;;;;;;5004072;28;20462;-69
2021/09/01 05:54:35;;;;;;;30.57;28.27;;;13.00;91.20;;;;;;4996189;28;20548;-68
2021/09/01 05:57:09;;;;;;;30.50;28.30;;;13.00;91.30;;;;;;5011260;28;21008;-68
2021/09/01 05:59:44;;;;;;;29.33;27.23;;;13.10;91.30;;;;;;4998613;28;20512;-69
2021/09/01 06:02:35;;;;;;;;;;;;;;;;;;;;;
2021/09/01 06:05:05;;;;;;;30.13;27.90;;;13.30;91.10;;;;;;5000135;28;20588;-69
2021/09/01 06:07:32;;;;;;;30.70;28.60;;;13.40;90.70;;;;;;5004949;28;20823;-69
2021/09/01 06:10:01;;;;;;;29.27;27.27;;;13.50;90.20;;;;;;5012123;28;20853;-68
2021/09/01 06:12:30;;;;;;;30.07;27.97;;;13.60;90.10;;;;;;5000622;28;20539;-69
2021/09/01 06:14:59;;;;;;;30.43;28.00;;;13.60;90.40;;;;;;5010336;28;20564;-68
2021/09/01 06:17:25;;;;;;;29.87;27.77;;;13.80;90.30;;;;;;5000011;28;20461;-69
2021/09/01 06:19:52;;;;;;;32.60;30.20;;;13.90;89.70;;;;;;5009114;28;20491;-68
2021/09/01 06:22:19;;;;;;;31.27;28.97;;;14.00;89.60;;;;;;5001308;28;20455;-68
2021/09/01 06:24:46;;;;;;;30.60;28.40;;;14.00;89.70;;;;;;5017598;28;21044;-69
2021/09/01 06:27:13;;;;;;;33.87;31.27;;;14.10;89.40;;;;;;5004284;28;20463;-68
2021/09/01 06:29:40;;;;;;;32.90;30.60;;;14.20;89.40;;;;;;4998354;28;20559;-68
2021/09/01 06:32:08;;;;;;;32.07;29.80;;;14.30;89.00;;;;;;5010949;28;20493;-67
2021/09/01 06:34:35;;;;;;;30.07;27.87;;;14.50;88.60;;;;;;5002907;28;20483;-67
2021/09/01 06:37:02;;;;;;;31.63;29.33;;;14.70;88.00;;;;;;5020399;28;20544;-67
2021/09/01 06:39:29;;;;;;;33.33;30.83;;;14.70;88.10;;;;;;5010925;28;20995;-67
2021/09/01 06:41:56;;;;;;;32.23;29.93;;;14.80;88.00;;;;;;5008175;28;20533;-67
2021/09/01 06:44:22;;;;;;;32.00;29.60;;;14.80;87.70;;;;;;5004273;28;20858;-67
2021/09/01 06:46:49;;;;;;;32.40;29.87;;;14.80;88.20;;;;;;5007001;28;20468;-67
2021/09/01 06:49:18;;;;;;;33.80;31.10;;;15.00;88.20;;;;;;5003172;28;21003;-67
2021/09/01 06:51:44;;;;;;;36.20;33.40;;;15.10;87.50;;;;;;5008043;28;20457;-67
2021/09/01 06:54:11;;;;;;;36.20;33.30;;;15.40;86.80;;;;;;5005352;28;20472;-67
2021/09/01 06:56:40;;;;;;;37.73;34.90;;;15.30;86.40;;;;;;5012087;28;20459;-67
2021/09/01 06:59:07;;;;;;;35.80;33.00;;;15.20;86.60;;;;;;4999290;28;21158;-67
2021/09/01 07:01:34;;;;;;;36.40;33.60;;;15.30;86.30;;;;;;5010753;28;20465;-67
2021/09/01 07:04:00;;;;;;;35.27;32.53;;;15.40;86.10;;;;;;4997721;28;20565;-67
2021/09/01 07:06:29;;;;;;;35.57;32.77;;;15.40;86.10;;;;;;5014120;28;20465;-67
2021/09/01 07:08:55;;;;;;;37.13;34.17;;;15.50;86.20;;;;;;5005318;28;20580;-67
2021/09/01 07:11:22;;;;;;;37.50;34.60;;;15.40;86.30;;;;;;5014870;28;20893;-67
2021/09/01 07:13:49;;;;;;;38.20;35.20;;;15.40;86.50;;;;;;5001422;28;20460;-67
2021/09/01 07:16:16;;;;;;;39.80;36.73;;;15.60;85.90;;;;;;5008711;28;20884;-67
2021/09/01 07:18:43;;;;;;;38.50;35.50;;;15.60;85.80;;;;;;5002465;28;20514;-67
2021/09/01 07:21:10;;;;;;;38.27;35.17;;;15.70;85.80;;;;;;4995737;28;20454;-67
2021/09/01 07:23:38;;;;;;;40.60;37.10;;;15.70;85.90;;;;;;5008907;28;20795;-67
2021/09/01 07:26:05;;;;;;;42.57;39.03;;;15.80;86.10;;;;;;5011474;28;20799;-67
2021/09/01 07:28:34;;;;;;;41.67;38.27;;;15.70;86.50;;;;;;5006387;28;20473;-67
2021/09/01 07:31:01;;;;;;;44.60;40.70;;;15.80;86.70;;;;;;5010748;28;20544;-68
2021/09/01 07:33:28;;;;;;;43.93;40.20;;;15.80;86.90;;;;;;5016858;28;20469;-67
2021/09/01 07:35:55;;;;;;;41.70;38.50;;;15.90;87.00;;;;;;5015285;28;20453;-67
2021/09/01 07:38:22;;;;;;;42.10;38.40;;;15.80;87.10;;;;;;5007746;28;20554;-67
2021/09/01 07:40:51;;;;;;;42.67;39.27;;;15.80;87.40;;;;;;5008537;28;20539;-67
2021/09/01 07:43:18;;;;;;;44.07;40.47;;;15.80;87.30;;;;;;5011617;28;20480;-67
2021/09/01 07:45:45;;;;;;;41.40;37.93;;;15.80;87.40;;;;;;5008443;28;20476;-67
2021/09/01 07:48:14;;;;;;;43.93;40.23;;;15.80;87.50;;;;;;5013897;28;20480;-67
2021/09/01 07:50:43;;;;;;;40.97;37.23;;;15.80;87.20;;;;;;5009357;28;20468;-67
2021/09/01 07:53:11;;;;;;;42.30;38.80;;;15.80;87.50;;;;;;4996498;28;20466;-67
2021/09/01 07:55:37;;;;;;;40.83;37.03;;;15.90;87.50;;;;;;5008891;28;20481;-67
2021/09/01 07:58:06;;;;;;;40.70;37.30;;;16.00;87.00;;;;;;5007117;28;20600;-67
2021/09/01 08:00:33;;;;;;;42.50;38.90;;;16.00;87.00;;;;;;5018129;28;20621;-67
2021/09/01 08:03:00;;;;;;;43.60;39.77;;;16.00;87.40;;;;;;5007863;28;20469;-67
2021/09/01 08:05:27;;;;;;;40.80;37.10;;;15.90;87.60;;;;;;5011495;28;20477;-67
2021/09/01 08:07:53;;;;;;;42.20;38.57;;;15.90;87.70;;;;;;5000618;28;20483;-67
2021/09/01 08:10:20;;;;;;;44.30;40.27;;;15.90;88.00;;;;;;5010789;28;20464;-67
2021/09/01 08:12:47;;;;;;;44.23;40.43;;;16.00;87.70;;;;;;5007221;28;20462;-67
2021/09/01 08:15:16;;;;;;;42.10;38.77;;;16.10;87.80;;;;;;5018947;28;20455;-67
2021/09/01 08:17:43;;;;;;;40.87;37.23;;;16.00;87.70;;;;;;5011284;28;20824;-67
2021/09/01 08:20:11;;;;;;;43.50;40.00;;;16.10;87.70;;;;;;5010009;28;20449;-67
2021/09/01 08:22:38;;;;;;;39.73;36.43;;;16.10;87.40;;;;;;5004382;28;20462;-67
2021/09/01 08:25:06;;;;;;;40.93;37.63;;;16.10;87.60;;;;;;5006152;28;20478;-67
2021/09/01 08:27:33;;;;;;;42.67;38.93;;;16.20;87.40;;;;;;5012397;28;20853;-67
2021/09/01 08:30:00;;;;;;;38.13;35.13;;;16.20;87.00;;;;;;5011799;28;20477;-67
2021/09/01 08:32:28;;;;;;;39.17;36.17;;;16.30;87.00;;;;;;5014131;28;20468;-67
2021/09/01 08:34:55;;;;;;;35.97;33.33;;;16.30;87.10;;;;;;5019792;28;20543;-67
2021/09/01 08:37:22;;;;;;;36.37;33.67;;;16.40;87.00;;;;;;5002588;28;20463;-67
2021/09/01 08:39:49;;;;;;;37.50;34.23;;;16.50;86.60;;;;;;4999458;28;21028;-67
2021/09/01 08:42:18;;;;;;;39.10;35.70;;;16.60;86.10;;;;;;5016064;28;20590;-67
2021/09/01 08:44:45;;;;;;;36.63;33.90;;;16.70;85.90;;;;;;5010240;28;20807;-67
2021/09/01 08:47:12;;;;;;;37.17;34.37;;;16.70;85.70;;;;;;4998866;28;20979;-67
2021/09/01 08:49:41;;;;;;;39.50;36.33;;;16.80;85.70;;;;;;5009435;28;20495;-67
2021/09/01 08:52:07;;;;;;;36.43;33.43;;;16.80;85.60;;;;;;5003248;28;20851;-67
2021/09/01 08:54:34;;;;;;;36.90;33.83;;;16.90;85.60;;;;;;5011251;28;20459;-69
2021/09/01 08:57:01;;;;;;;37.80;35.10;;;17.00;85.20;;;;;;5002375;28;20492;-69
2021/09/01 08:59:28;;;;;;;37.30;34.40;;;17.00;85.00;;;;;;5006038;28;20681;-69
2021/09/01 09:01:56;;;;;;;37.90;34.57;;;17.00;84.90;;;;;;5009753;28;20638;-69
2021/09/01 09:04:27;;;;;;;36.93;34.10;;;17.00;85.00;;;;;;5004016;28;20487;-69
2021/09/01 09:06:57;;;;;;;37.97;35.00;;;17.10;84.70;;;;;;5002057;28;20462;-69
2021/09/01 09:09:25;;;;;;;39.20;36.30;;;17.20;84.90;;;;;;5007373;28;20476;-69
2021/09/01 09:11:53;;;;;;;38.40;35.53;;;17.30;84.60;;;;;;4997272;28;20895;-69
2021/09/01 09:14:23;;;;;;;37.17;34.47;;;17.40;84.30;;;;;;5009763;28;20983;-67
2021/09/01 09:17:05;;;;;;;37.57;34.47;;;17.50;84.10;;;;;;5019082;28;20510;-67
2021/09/01 09:19:49;;;;;;;36.03;33.40;;;17.70;83.60;;;;;;5011896;28;20481;-67
2021/09/01 09:22:22;;;;;;;34.80;32.40;;;17.80;83.40;;;;;;5005652;28;20468;-67
2021/09/01 09:25:10;;;;;;;37.90;35.20;;;17.80;82.90;;;;;;5010079;28;20475;-67
2021/09/01 09:27:43;;;;;;;36.10;33.70;;;18.00;82.60;;;;;;5001485;28;20504;-67
2021/09/01 09:30:41;;;;;;;36.23;33.50;;;18.10;82.10;;;;;;5003051;28;20851;-67
2021/09/01 09:33:11;;;;;;;35.57;32.77;;;18.20;81.80;;;;;;5014449;28;20489;-67
2021/09/01 09:36:02;;;;;;;37.33;34.80;;;18.20;81.20;;;;;;5007922;28;20461;-67
2021/09/01 09:38:33;;;;;;;37.23;34.60;;;18.20;81.50;;;;;;4995206;28;20551;-67
2021/09/01 09:41:01;;;;;;;35.10;32.33;;;18.00;82.20;;;;;;4999662;28;20457;-67
2021/09/01 09:43:29;;;;;;;36.60;34.03;;;18.10;82.00;;;;;;5005253;28;20543;-67
2021/09/01 09:46:06;;;;;;;38.70;35.07;;;18.20;81.80;;;;;;4966686;28;1094812;-68
2021/09/01 09:48:35;;;;;;;37.13;34.43;;;18.30;81.40;;;;;;4999155;28;20279;-67
2021/09/01 09:51:04;;;;;;;35.40;32.80;;;18.30;81.30;;;;;;5002355;28;20461;-67
2021/09/01 09:53:35;;;;;;;35.63;33.27;;;18.30;81.00;;;;;;4997982;28;20537;-67
2021/09/01 09:56:10;;;;;;;34.00;31.40;;;18.40;80.30;;;;;;5011985;28;20488;-67
2021/09/01 09:58:39;;;;;;;32.10;30.00;;;18.50;80.00;;;;;;5007987;28;20491;-67
2021/09/01 10:01:08;;;;;;;31.97;30.13;;;18.60;79.80;;;;;;5010679;28;20455;-67
2021/09/01 10:03:35;;;;;;;35.23;33.03;;;18.70;79.20;;;;;;5007673;28;21061;-67
2021/09/01 10:06:05;;;;;;;34.97;32.63;;;18.80;77.70;;;;;;5013605;28;20480;-67
2021/09/01 10:08:34;;;;;;;31.90;29.80;;;19.00;77.30;;;;;;5003117;28;20492;-67
2021/09/01 10:11:03;;;;;;;36.10;33.60;;;19.10;76.70;;;;;;5013317;28;20494;-67
2021/09/01 10:13:31;;;;;;;36.90;34.30;;;19.20;75.70;;;;;;5005097;28;21042;-67
2021/09/01 10:16:04;;;;;;;34.47;32.07;;;19.10;76.00;;;;;;5000767;28;21041;-67
2021/09/01 10:18:33;;;;;;;37.33;34.87;;;19.10;75.30;;;;;;5013555;28;20486;-69
2021/09/01 10:21:02;;;;;;;36.10;33.70;;;19.10;75.60;;;;;;5002588;28;20465;-69
2021/09/01 10:23:44;;;;;;;37.37;35.10;;;19.20;75.30;;;;;;5010287;28;20492;-69
2021/09/01 10:26:23;;;;;;;35.30;33.00;;;19.30;74.00;;;;;;5005736;28;20486;-69
2021/09/01 10:28:50;;;;;;;33.67;31.73;;;19.40;73.20;;;;;;5008327;28;20491;-69
2021/09/01 10:31:29;;;;;;;32.20;30.20;;;19.40;71.00;;;;;;5008130;28;20484;-69
2021/09/01 10:34:01;;;;;;;33.00;30.90;;;19.50;70.90;;;;;;4995957;28;20552;-69
2021/09/01 10:36:48;;;;;;;33.83;31.73;;;19.70;70.80;;;;;;5014719;28;20464;-69
2021/09/01 10:39:33;;;;;;;32.83;30.83;;;19.80;68.50;;;;;;4999417;28;20564;-69
2021/09/01 10:42:00;;;;;;;31.97;29.97;;;19.90;67.80;;;;;;5005071;28;20457;-68
2021/09/01 10:44:48;;;;;;;33.37;31.40;;;20.00;66.20;;;;;;5003545;28;20541;-68
2021/09/01 10:47:15;;;;;;;35.23;33.00;;;20.10;66.50;;;;;;5011207;28;20477;-69
2021/09/01 10:49:59;;;;;;;33.00;30.90;;;20.10;66.60;;;;;;4999467;28;20482;-69
2021/09/01 10:52:46;;;;;;;31.07;29.27;;;20.30;65.20;;;;;;4999865;28;20454;-69
2021/09/01 10:55:15;;;;;;;33.23;30.73;;;20.40;65.50;;;;;;5007025;28;20448;-67
2021/09/01 10:57:41;;;;;;;32.00;29.90;;;20.60;65.90;;;;;;5014167;28;20453;-67
2021/09/01 11:00:16;;;;;;;31.70;29.60;;;20.80;65.50;;;;;;4998929;28;20549;-67
2021/09/01 11:02:51;;;;;;;35.50;33.30;;;20.90;65.20;;;;;;4991906;28;20549;-67
2021/09/01 11:05:23;;;;;;;34.47;32.07;;;21.10;64.80;;;;;;5008323;28;20476;-67
2021/09/01 11:07:56;;;;;;;33.40;31.27;;;21.20;64.20;;;;;;5009446;28;20462;-67
2021/09/01 11:10:26;;;;;;;32.97;30.73;;;21.30;63.90;;;;;;5004512;28;20967;-67
2021/09/01 11:12:58;;;;;;;32.53;30.53;;;21.20;63.00;;;;;;5012144;28;20492;-67
2021/09/01 11:15:25;;;;;;;34.50;32.40;;;21.20;63.70;;;;;;5005534;28;20450;-67
2021/09/01 11:17:52;;;;;;;32.90;30.80;;;21.20;64.20;;;;;;5001374;28;20468;-67
2021/09/01 11:20:22;;;;;;;34.03;31.97;;;21.30;63.10;;;;;;5007399;28;20472;-67
2021/09/01 11:22:49;;;;;;;31.53;29.63;;;21.50;63.00;;;;;;5009783;28;20468;-67
2021/09/01 11:25:17;;;;;;;33.30;31.30;;;21.60;62.60;;;;;;5005649;28;20988;-67
2021/09/01 11:27:52;;;;;;;33.73;31.73;;;21.80;62.40;;;;;;5005380;28;20461;-67
2021/09/01 11:30:20;;;;;;;35.23;32.97;;;21.90;62.20;;;;;;5002725;28;20961;-67
2021/09/01 11:32:53;;;;;;;34.70;32.50;;;21.90;62.70;;;;;;5014663;28;20457;-67
2021/09/01 11:35:20;;;;;;;34.87;32.77;;;22.10;62.80;;;;;;5005049;28;20449;-67
2021/09/01 11:37:55;;;;;;;34.33;32.23;;;22.30;62.50;;;;;;5005443;28;21112;-67
2021/09/01 11:40:22;;;;;;;34.07;31.80;;;22.40;62.00;;;;;;4998686;28;20645;-67
2021/09/01 11:42:50;;;;;;;34.70;32.47;;;22.60;61.60;;;;;;5009667;28;21070;-67
2021/09/01 11:45:17;;;;;;;36.30;33.87;;;22.80;61.20;;;;;;5008668;28;20560;-67
2021/09/01 11:47:45;;;;;;;35.10;32.70;;;22.80;59.00;;;;;;5007092;28;20476;-67
2021/09/01 11:50:17;;;;;;;36.13;33.93;;;22.50;59.30;;;;;;5011807;28;21022;-67
2021/09/01 11:52:51;;;;;;;34.70;32.57;;;22.40;59.40;;;;;;4998997;28;21037;-67
2021/09/01 11:55:22;;;;;;;32.30;30.40;;;22.70;59.60;;;;;;5006367;28;20453;-67
2021/09/01 11:57:50;;;;;;;33.23;31.23;;;22.70;56.20;;;;;;4997430;28;20463;-67
2021/09/01 12:00:18;;;;;;;34.30;32.30;;;22.40;57.30;;;;;;5006084;28;20467;-67
2021/09/01 12:02:49;;;;;;;33.90;31.90;;;22.20;57.30;;;;;;5000913;28;21084;-67
2021/09/01 12:05:28;;;;;;;34.23;32.03;;;22.30;57.30;;;;;;5002137;28;20562;-67
2021/09/01 12:07:55;;;;;;;33.33;31.33;;;22.20;58.40;;;;;;4992311;28;20485;-67
2021/09/01 12:10:22;;;;;;;32.63;30.60;;;22.20;60.70;;;;;;5006737;28;20498;-67
2021/09/01 12:13:00;;;;;;;32.83;30.83;;;22.00;61.60;;;;;;5007347;28;20978;-67
2021/09/01 12:15:28;;;;;;;34.70;32.60;;;22.10;60.70;;;;;;5011271;28;20976;-68
2021/09/01 12:18:03;;;;;;;33.43;31.30;;;22.20;60.20;;;;;;4996997;28;20487;-67
2021/09/01 12:20:33;;;;;;;35.70;33.17;;;22.30;59.00;;;;;;5009164;28;20965;-68
2021/09/01 12:23:02;;;;;;;33.50;31.50;;;22.20;59.80;;;;;;5004919;28;20457;-68
2021/09/01 12:25:29;;;;;;;32.00;30.20;;;22.30;58.60;;;;;;4993225;28;20828;-68
2021/09/01 12:28:04;;;;;;;34.50;32.30;;;22.20;58.80;;;;;;4996454;28;20477;-69
2021/09/01 12:30:34;;;;;;;33.47;31.33;;;22.10;58.90;;;;;;5001720;28;20514;-68
2021/09/01 12:33:03;;;;;;;34.30;32.20;;;22.00;59.50;;;;;;4999560;28;20551;-68
2021/09/01 12:35:32;;;;;;;34.37;32.37;;;21.90;60.50;;;;;;5008144;28;20455;-69